Shawanee, Tennessee
Current Conditions -  °F | °C
As of 4:55 PM on Monday 24 Nov 2014 (Local Time) from K1A6 Reporting Station
Clear Clear  
Wind Chill: 63°   Ceiling: Unl
Heat Index: 63°   Visibility: 10mi
Dew Point: 42°   Wind: 12mph
Humidity: 46%   Direction: 280°W
Pressure: 29.79"   Gusts: NA
Location:  36.58°N, 83.64°W
Report Text: K1A6 242155Z AUTO 28010KT 10SM CLR 17/05 A2979 RMK AO2 T01700054
Loading
Personal Weather Stations






























Interactive Weather Map New forecast layout! Learn more

10-Day Weather Forecast

Advertisements
Track Severe Weather on mobile